Max Wonder — 9HA4072 — position and weather

sailwx.info

Track history (hours):
 
Tides and Currents Weather Stations Pressure Air Temp Water Temp Dewpoint Dewpoint Depression Visibility Wind Speed Wind Dir Waves Ship Positions

Max Wonder

Last reported at 2018-Jun-21 11:08 UTC. Time now 2018-Jun-24 16:43 UTC.
Position N 27°37' W 015°17'.

Length 162 m; draft 9.3 m.

Type: Ship (hazmat cat A). MMSI: 249060000.

Date/timePositionNaut miles runAvg speedWind from/ knotsBaromVisibWave heightAir tempDewpointWater temp
2018-Jun-21 11:08N 27°37' W 015°17'215.7
2018-Jun-21 10:59N 27°39' W 015°17'816.3
2018-Jun-21 10:30N 27°47' W 015°16'816.8
2018-Jun-21 10:00N 27°55' W 015°17'815.7
2018-Jun-21 09:30N 28°03' W 015°20'612.2
2018-Jun-21 09:00N 28°07' W 015°24'2 3.5
2018-Jun-21 08:30N 28°09' W 015°25'0 0.1
2018-Jun-21 07:53N 28°09' W 015°25'0 0.0
2018-Jun-21 07:23N 28°09' W 015°25'0 0.0
2018-Jun-21 06:53N 28°09' W 015°25'0 0.0
2018-Jun-21 06:23N 28°09' W 015°25'0 0.0
2018-Jun-21 05:53N 28°09' W 015°25'0 0.0
2018-Jun-21 05:26N 28°09' W 015°25'0 0.0
2018-Jun-21 04:53N 28°09' W 015°25'0 0.0
2018-Jun-21 04:26N 28°09' W 015°25'0 0.0
2018-Jun-21 03:56N 28°09' W 015°25'0 0.0
2018-Jun-21 03:26N 28°09' W 015°25'0 0.0
2018-Jun-21 02:56N 28°09' W 015°25'0 0.0
2018-Jun-21 02:29N 28°09' W 015°25'0 0.0
2018-Jun-21 01:59N 28°09' W 015°25'0 0.0
2018-Jun-21 01:29N 28°09' W 015°25'0 0.0
2018-Jun-21 00:59N 28°09' W 015°25'0 0.0
2018-Jun-21 00:29N 28°09' W 015°25'0 0.0
2018-Jun-20 23:59N 28°09' W 015°25'0 0.0
2018-Jun-20 23:29N 28°09' W 015°25'0 0.0
2018-Jun-20 22:59N 28°09' W 015°25'0 0.0
2018-Jun-20 22:29N 28°09' W 015°25'0 0.0
2018-Jun-20 21:59N 28°09' W 015°25'0 0.0
2018-Jun-20 21:29N 28°09' W 015°25'0 0.0
2018-Jun-20 20:59N 28°09' W 015°25'0 0.0
2018-Jun-20 20:20N 28°09' W 015°25'0 0.0
2018-Jun-20 19:59N 28°09' W 015°25'0 0.0
2018-Jun-20 19:17N 28°09' W 015°25'0 0.0
2018-Jun-20 18:50N 28°09' W 015°25'0 0.0
2018-Jun-20 18:17N 28°09' W 015°25'0 0.0
2018-Jun-20 17:53N 28°09' W 015°25'0 0.0
2018-Jun-20 17:23N 28°09' W 015°25'0 0.0
2018-Jun-20 17:00N 28°09' W 015°25'2 4.0
2018-Jun-20 16:30N 28°07' W 015°24'5 9.6
2018-Jun-20 16:00N 28°07' W 015°19'815.2
2018-Jun-20 15:30N 28°13' W 015°13'815.8
2018-Jun-20 15:00N 28°19' W 015°07'816.0
2018-Jun-20 14:30N 28°25' W 015°02'815.7
2018-Jun-20 14:00N 28°31' W 014°56'715.1
2018-Jun-20 13:30N 28°37' W 014°50'815.4
2018-Jun-20 12:58N 28°43' W 014°44'815.6
2018-Jun-20 12:29N 28°49' W 014°38'815.5
2018-Jun-20 11:58N 28°55' W 014°33'915.6
2018-Jun-20 11:22N 29°02' W 014°26'615.7
2018-Jun-20 10:59N 29°07' W 014°21'715.5
2018-Jun-20 10:31N 29°12' W 014°16'915.6
2018-Jun-20 09:58N 29°19' W 014°10'715.9
2018-Jun-20 09:30N 29°25' W 014°04'1116.1
2018-Jun-20 08:49N 29°33' W 013°56'47115.5
2018-Jun-19 02:27N 34°55' W 007°11'2414.8
2018-Jun-19 00:51N 35°11' W 006°49'714.2
2018-Jun-19 00:22N 35°16' W 006°43'514.1
2018-Jun-19 00:00N 35°20' W 006°39'1514.7
2018-Jun-18 22:57N 35°30' W 006°25'4512.7
2018-Jun-18 19:23N 35°57' W 005°40'511.8
2018-Jun-18 19:00N 35°57' W 005°34'1 0.1
2018-Jun-18 04:19N 35°57' W 005°33'410.8
2018-Jun-18 03:59N 35°59' W 005°29'612.3
2018-Jun-18 03:30N 36°01' W 005°22'611.5
2018-Jun-18 03:00N 36°03' W 005°15'5 0.1
2018-Jun-16 16:21N 36°06' W 005°11'515.8
2018-Jun-16 16:00N 36°03' W 005°17'611.9
2018-Jun-16 15:30N 36°05' W 005°24'3 0.3
2018-Jun-16 06:14N 36°08' W 005°25'0 0.0
2018-Jun-16 05:56N 36°08' W 005°25'0 0.0
2018-Jun-16 05:26N 36°08' W 005°25'0 0.0
2018-Jun-16 04:56N 36°08' W 005°25'0 0.0
2018-Jun-16 04:20N 36°08' W 005°25'0 0.0
2018-Jun-16 03:56N 36°08' W 005°25'0 0.0
2018-Jun-16 03:26N 36°08' W 005°25'0 0.0
2018-Jun-16 02:50N 36°08' W 005°25'0 0.0
2018-Jun-16 02:08N 36°08' W 005°25'0 0.0
2018-Jun-16 01:56N 36°08' W 005°25'0 0.0
2018-Jun-16 01:26N 36°08' W 005°25'0 0.0
2018-Jun-16 00:53N 36°08' W 005°25'0 0.0
2018-Jun-16 00:26N 36°08' W 005°25'0 0.0
2018-Jun-15 23:59N 36°08' W 005°25'0 0.0
2018-Jun-15 23:26N 36°08' W 005°25'0 0.0
2018-Jun-15 22:56N 36°08' W 005°25'0 0.0
2018-Jun-15 22:23N 36°08' W 005°25'0 0.0
2018-Jun-15 21:56N 36°08' W 005°25'0 0.0
2018-Jun-15 21:14N 36°08' W 005°25'0 0.0
2018-Jun-15 20:50N 36°08' W 005°25'0 0.0
2018-Jun-15 20:26N 36°08' W 005°25'0 0.0
2018-Jun-15 19:41N 36°08' W 005°25'0 0.0
2018-Jun-15 19:26N 36°08' W 005°25'0 0.0
2018-Jun-15 18:56N 36°08' W 005°25'0 0.0
2018-Jun-15 18:23N 36°08' W 005°25'0 0.0
2018-Jun-15 17:56N 36°08' W 005°25'0 0.0
2018-Jun-15 17:08N 36°08' W 005°25'0 1.1
2018-Jun-15 17:00N 36°08' W 005°25'3 4.7
2018-Jun-15 16:28N 36°06' W 005°23'4 8.7
2018-Jun-15 16:00N 36°03' W 005°20'5 8.3
2018-Jun-15 15:22N 36°04' W 005°14'4 7.9
2018-Jun-15 14:55N 36°05' W 005°09'2 5.1
2018-Jun-15 14:28N 36°03' W 005°11'3 6.8
2018-Jun-15 14:00N 36°01' W 005°14'1 2.2
2018-Jun-15 13:27N 35°60' W 005°15'0 1.1
2018-Jun-15 13:00N 35°59' W 005°15'0 0.9
2018-Jun-15 12:30N 35°59' W 005°15'1 1.0
2018-Jun-15 12:00N 35°59' W 005°15'1 1.9
2018-Jun-15 11:30N 35°58' W 005°16'611.6
2018-Jun-15 11:00N 35°58' W 005°23'612.3
2018-Jun-15 10:30N 35°57' W 005°31'  
Track history (hours):
 
Tides and Currents Weather Stations Pressure Air Temp Water Temp Dewpoint Dewpoint Depression Visibility Wind Speed Wind Dir Waves Ship Positions

Max Wonder

Last reported at 2018-Jun-21 11:08 UTC. Time now 2018-Jun-24 16:43 UTC.
Position N 27°37' W 015°17'.

Length 162 m; draft 9.3 m.

Type: Ship (hazmat cat A). MMSI: 249060000.

Date/timePositionNaut miles runAvg speedWind from/ knotsBaromVisibWave heightAir tempDewpointWater temp
2018-Jun-21 11:08N 27°37' W 015°17'215.7
2018-Jun-21 10:59N 27°39' W 015°17'816.3
2018-Jun-21 10:30N 27°47' W 015°16'816.8
2018-Jun-21 10:00N 27°55' W 015°17'815.7
2018-Jun-21 09:30N 28°03' W 015°20'612.2
2018-Jun-21 09:00N 28°07' W 015°24'2 3.5
2018-Jun-21 08:30N 28°09' W 015°25'0 0.1
2018-Jun-21 07:53N 28°09' W 015°25'0 0.0
2018-Jun-21 07:23N 28°09' W 015°25'0 0.0
2018-Jun-21 06:53N 28°09' W 015°25'0 0.0
2018-Jun-21 06:23N 28°09' W 015°25'0 0.0
2018-Jun-21 05:53N 28°09' W 015°25'0 0.0
2018-Jun-21 05:26N 28°09' W 015°25'0 0.0
2018-Jun-21 04:53N 28°09' W 015°25'0 0.0
2018-Jun-21 04:26N 28°09' W 015°25'0 0.0
2018-Jun-21 03:56N 28°09' W 015°25'0 0.0
2018-Jun-21 03:26N 28°09' W 015°25'0 0.0
2018-Jun-21 02:56N 28°09' W 015°25'0 0.0
2018-Jun-21 02:29N 28°09' W 015°25'0 0.0
2018-Jun-21 01:59N 28°09' W 015°25'0 0.0
2018-Jun-21 01:29N 28°09' W 015°25'0 0.0
2018-Jun-21 00:59N 28°09' W 015°25'0 0.0
2018-Jun-21 00:29N 28°09' W 015°25'0 0.0
2018-Jun-20 23:59N 28°09' W 015°25'0 0.0
2018-Jun-20 23:29N 28°09' W 015°25'0 0.0
2018-Jun-20 22:59N 28°09' W 015°25'0 0.0
2018-Jun-20 22:29N 28°09' W 015°25'0 0.0
2018-Jun-20 21:59N 28°09' W 015°25'0 0.0
2018-Jun-20 21:29N 28°09' W 015°25'0 0.0
2018-Jun-20 20:59N 28°09' W 015°25'0 0.0
2018-Jun-20 20:20N 28°09' W 015°25'0 0.0
2018-Jun-20 19:59N 28°09' W 015°25'0 0.0
2018-Jun-20 19:17N 28°09' W 015°25'0 0.0
2018-Jun-20 18:50N 28°09' W 015°25'0 0.0
2018-Jun-20 18:17N 28°09' W 015°25'0 0.0
2018-Jun-20 17:53N 28°09' W 015°25'0 0.0
2018-Jun-20 17:23N 28°09' W 015°25'0 0.0
2018-Jun-20 17:00N 28°09' W 015°25'2 4.0
2018-Jun-20 16:30N 28°07' W 015°24'5 9.6
2018-Jun-20 16:00N 28°07' W 015°19'815.2
2018-Jun-20 15:30N 28°13' W 015°13'815.8
2018-Jun-20 15:00N 28°19' W 015°07'816.0
2018-Jun-20 14:30N 28°25' W 015°02'815.7
2018-Jun-20 14:00N 28°31' W 014°56'715.1
2018-Jun-20 13:30N 28°37' W 014°50'815.4
2018-Jun-20 12:58N 28°43' W 014°44'815.6
2018-Jun-20 12:29N 28°49' W 014°38'815.5
2018-Jun-20 11:58N 28°55' W 014°33'915.6
2018-Jun-20 11:22N 29°02' W 014°26'615.7
2018-Jun-20 10:59N 29°07' W 014°21'715.5
2018-Jun-20 10:31N 29°12' W 014°16'915.6
2018-Jun-20 09:58N 29°19' W 014°10'715.9
2018-Jun-20 09:30N 29°25' W 014°04'1116.1
2018-Jun-20 08:49N 29°33' W 013°56'47115.5
2018-Jun-19 02:27N 34°55' W 007°11'2414.8
2018-Jun-19 00:51N 35°11' W 006°49'714.2
2018-Jun-19 00:22N 35°16' W 006°43'514.1
2018-Jun-19 00:00N 35°20' W 006°39'1514.7
2018-Jun-18 22:57N 35°30' W 006°25'4512.7
2018-Jun-18 19:23N 35°57' W 005°40'511.8
2018-Jun-18 19:00N 35°57' W 005°34'1 0.1
2018-Jun-18 04:19N 35°57' W 005°33'410.8
2018-Jun-18 03:59N 35°59' W 005°29'612.3
2018-Jun-18 03:30N 36°01' W 005°22'611.5
2018-Jun-18 03:00N 36°03' W 005°15'5 0.1
2018-Jun-16 16:21N 36°06' W 005°11'515.8
2018-Jun-16 16:00N 36°03' W 005°17'611.9
2018-Jun-16 15:30N 36°05' W 005°24'3 0.3
2018-Jun-16 06:14N 36°08' W 005°25'0 0.0
2018-Jun-16 05:56N 36°08' W 005°25'0 0.0
2018-Jun-16 05:26N 36°08' W 005°25'0 0.0
2018-Jun-16 04:56N 36°08' W 005°25'0 0.0
2018-Jun-16 04:20N 36°08' W 005°25'0 0.0
2018-Jun-16 03:56N 36°08' W 005°25'0 0.0
2018-Jun-16 03:26N 36°08' W 005°25'0 0.0
2018-Jun-16 02:50N 36°08' W 005°25'0 0.0
2018-Jun-16 02:08N 36°08' W 005°25'0 0.0
2018-Jun-16 01:56N 36°08' W 005°25'0 0.0
2018-Jun-16 01:26N 36°08' W 005°25'0 0.0
2018-Jun-16 00:53N 36°08' W 005°25'0 0.0
2018-Jun-16 00:26N 36°08' W 005°25'0 0.0
2018-Jun-15 23:59N 36°08' W 005°25'0 0.0
2018-Jun-15 23:26N 36°08' W 005°25'0 0.0
2018-Jun-15 22:56N 36°08' W 005°25'0 0.0
2018-Jun-15 22:23N 36°08' W 005°25'0 0.0
2018-Jun-15 21:56N 36°08' W 005°25'0 0.0
2018-Jun-15 21:14N 36°08' W 005°25'0 0.0
2018-Jun-15 20:50N 36°08' W 005°25'0 0.0
2018-Jun-15 20:26N 36°08' W 005°25'0 0.0
2018-Jun-15 19:41N 36°08' W 005°25'0 0.0
2018-Jun-15 19:26N 36°08' W 005°25'0 0.0
2018-Jun-15 18:56N 36°08' W 005°25'0 0.0
2018-Jun-15 18:23N 36°08' W 005°25'0 0.0
2018-Jun-15 17:56N 36°08' W 005°25'0 0.0
2018-Jun-15 17:08N 36°08' W 005°25'0 1.1
2018-Jun-15 17:00N 36°08' W 005°25'3 4.7
2018-Jun-15 16:28N 36°06' W 005°23'4 8.7
2018-Jun-15 16:00N 36°03' W 005°20'5 8.3
2018-Jun-15 15:22N 36°04' W 005°14'4 7.9
2018-Jun-15 14:55N 36°05' W 005°09'2 5.1
2018-Jun-15 14:28N 36°03' W 005°11'3 6.8
2018-Jun-15 14:00N 36°01' W 005°14'1 2.2
2018-Jun-15 13:27N 35°60' W 005°15'0 1.1
2018-Jun-15 13:00N 35°59' W 005°15'0 0.9
2018-Jun-15 12:30N 35°59' W 005°15'1 1.0
2018-Jun-15 12:00N 35°59' W 005°15'1 1.9
2018-Jun-15 11:30N 35°58' W 005°16'611.6
2018-Jun-15 11:00N 35°58' W 005°23'612.3
2018-Jun-15 10:30N 35°57' W 005°31'  

Dump ship's entire track history